Time;durP1;ratioP1;P1;durP2;ratioP2;P2;SDS_P1;SDS_P2;PMS_P1;PMS_P2;Temp;Humidity;BMP_temperature;BMP_pressure;BME280_temperature;BME280_humidity;BME280_pressure;Samples;Min_cycle;Max_cycle;Signal;HPM_P1;HPM_P2
2023/10/04 00:00:50;;;;;;;7.13;2.10;;;14.90;16.40;;;;;;5007412;28;20471;-65
2023/10/04 00:03:18;;;;;;;4.63;1.73;;;14.90;16.50;;;;;;5006574;28;20474;-65
2023/10/04 00:05:46;;;;;;;6.20;2.70;;;14.90;16.40;;;;;;5007318;28;20480;-65
2023/10/04 00:08:12;;;;;;;5.50;1.93;;;14.90;16.40;;;;;;5007506;28;20456;-66
2023/10/04 00:10:39;;;;;;;5.13;1.93;;;14.90;16.50;;;;;;5008433;28;20478;-66
2023/10/04 00:13:06;;;;;;;4.83;2.00;;;14.90;16.70;;;;;;5008138;28;20300;-66
2023/10/04 00:15:33;;;;;;;8.40;2.20;;;14.80;16.80;;;;;;5007648;28;21007;-65
2023/10/04 00:17:59;;;;;;;6.33;2.07;;;14.80;16.70;;;;;;5003248;28;20495;-64
2023/10/04 00:20:32;;;;;;;6.20;2.17;;;14.70;16.90;;;;;;5007370;28;20858;-64
2023/10/04 00:23:02;;;;;;;5.33;1.93;;;14.70;16.90;;;;;;5003404;28;20488;-64
2023/10/04 00:25:29;;;;;;;5.07;2.03;;;14.70;17.10;;;;;;5005442;28;20487;-64
2023/10/04 00:27:56;;;;;;;5.17;1.80;;;14.70;17.00;;;;;;5008544;28;20460;-66
2023/10/04 00:30:25;;;;;;;5.40;1.90;;;14.70;16.90;;;;;;5002155;28;20467;-66
2023/10/04 00:32:53;;;;;;;7.37;2.33;;;14.70;17.20;;;;;;5005237;28;20563;-66
2023/10/04 00:35:21;;;;;;;5.07;1.80;;;14.70;16.90;;;;;;5005954;28;20483;-65
2023/10/04 00:37:51;;;;;;;6.00;2.80;;;14.70;16.90;;;;;;5005543;28;20522;-65
2023/10/04 00:40:23;;;;;;;6.20;2.10;;;14.60;17.00;;;;;;5004309;28;20469;-65
2023/10/04 00:42:51;;;;;;;5.40;1.90;;;14.60;17.20;;;;;;5007930;28;20456;-66
2023/10/04 00:45:19;;;;;;;4.63;1.73;;;14.60;17.10;;;;;;5006563;28;20487;-64
2023/10/04 00:47:50;;;;;;;6.20;1.53;;;14.50;17.30;;;;;;5006927;28;20482;-66
2023/10/04 00:50:22;;;;;;;4.13;1.63;;;14.50;17.40;;;;;;5004867;28;20456;-66
2023/10/04 00:52:54;;;;;;;5.50;2.50;;;14.50;17.70;;;;;;5004332;28;20543;-66
2023/10/04 00:55:23;;;;;;;6.60;1.90;;;14.40;17.70;;;;;;5006945;28;20479;-66
2023/10/04 00:57:54;;;;;;;5.43;1.80;;;14.40;17.60;;;;;;5002648;28;20923;-66
2023/10/04 01:00:20;;;;;;;5.13;2.00;;;14.40;17.60;;;;;;5006468;28;21444;-66
2023/10/04 01:02:47;;;;;;;5.23;1.57;;;14.30;17.70;;;;;;5005220;28;20459;-66
2023/10/04 01:05:15;;;;;;;7.90;1.90;;;14.30;17.60;;;;;;5006964;28;20490;-66
2023/10/04 01:07:43;;;;;;;5.60;2.07;;;14.30;17.60;;;;;;5000905;28;20522;-64
2023/10/04 01:10:15;;;;;;;5.53;1.67;;;14.20;17.40;;;;;;5006714;28;20475;-65
2023/10/04 01:12:46;;;;;;;5.57;2.03;;;14.20;17.40;;;;;;5005942;28;20554;-66
2023/10/04 01:15:28;;;;;;;5.10;2.00;;;14.10;17.60;;;;;;5006841;28;20475;-66
2023/10/04 01:17:56;;;;;;;4.77;1.50;;;14.10;17.70;;;;;;5005667;28;20487;-65
2023/10/04 01:20:27;;;;;;;6.10;1.63;;;14.00;17.70;;;;;;5006651;28;20459;-65
2023/10/04 01:23:00;;;;;;;5.73;2.00;;;14.00;17.80;;;;;;5003671;28;20498;-64
2023/10/04 01:25:31;;;;;;;5.13;2.20;;;13.90;17.90;;;;;;5004607;28;20566;-64
2023/10/04 01:27:59;;;;;;;6.17;2.27;;;13.90;18.20;;;;;;5006953;28;20467;-64
2023/10/04 01:30:26;;;;;;;6.83;1.83;;;13.80;18.20;;;;;;5006819;28;20525;-64
2023/10/04 01:32:53;;;;;;;4.80;2.03;;;13.70;18.30;;;;;;5007148;28;20463;-64
2023/10/04 01:35:23;;;;;;;5.60;1.90;;;13.70;18.10;;;;;;5003073;28;20487;-64
2023/10/04 01:37:50;;;;;;;6.50;2.13;;;13.60;17.80;;;;;;5007171;28;20567;-65
2023/10/04 01:40:19;;;;;;;5.20;2.30;;;13.60;17.70;;;;;;5005705;28;20466;-65
2023/10/04 01:42:46;;;;;;;5.37;2.30;;;13.60;17.80;;;;;;5006535;28;20542;-65
2023/10/04 01:45:18;;;;;;;4.97;2.07;;;13.50;18.40;;;;;;5001602;28;20481;-65
2023/10/04 01:47:45;;;;;;;5.27;2.23;;;13.50;18.30;;;;;;5002259;28;20496;-65
2023/10/04 01:50:12;;;;;;;5.67;2.20;;;13.50;18.50;;;;;;5004207;28;20838;-65
2023/10/04 01:52:39;;;;;;;6.13;2.10;;;13.50;18.80;;;;;;5008732;28;20467;-65
2023/10/04 01:55:10;;;;;;;4.67;2.10;;;13.40;19.00;;;;;;5008477;28;20483;-65
2023/10/04 01:57:39;;;;;;;5.00;1.70;;;13.40;19.10;;;;;;5009501;28;20586;-65
2023/10/04 02:00:09;;;;;;;5.43;2.50;;;13.40;19.20;;;;;;5009225;28;20467;-65
2023/10/04 02:02:38;;;;;;;6.10;2.77;;;13.30;19.40;;;;;;5009700;28;20468;-65
2023/10/04 02:05:09;;;;;;;5.47;2.00;;;13.30;19.70;;;;;;5006428;28;20479;-66
2023/10/04 02:07:38;;;;;;;7.50;2.50;;;13.20;19.60;;;;;;5009465;28;20465;-65
2023/10/04 02:10:09;;;;;;;5.47;2.07;;;13.20;19.30;;;;;;5007233;28;21015;-65
2023/10/04 02:12:37;;;;;;;8.60;2.90;;;13.20;19.00;;;;;;5009657;28;20468;-65
2023/10/04 02:15:06;;;;;;;7.13;2.43;;;13.10;19.10;;;;;;5004815;28;20491;-65
2023/10/04 02:17:33;;;;;;;9.50;3.17;;;13.10;19.20;;;;;;5005901;28;20464;-65
2023/10/04 02:19:59;;;;;;;5.57;2.27;;;13.10;19.40;;;;;;5009156;28;20486;-65
2023/10/04 02:22:28;;;;;;;6.97;2.43;;;13.10;19.40;;;;;;5008235;28;20472;-65
2023/10/04 02:24:55;;;;;;;7.50;2.40;;;13.10;19.60;;;;;;5005892;28;20482;-65
2023/10/04 02:27:21;;;;;;;7.10;3.13;;;13.10;19.80;;;;;;5010330;28;21034;-65
2023/10/04 02:29:50;;;;;;;6.53;2.23;;;13.10;20.00;;;;;;5008874;28;20458;-65
2023/10/04 02:32:16;;;;;;;8.50;3.10;;;13.10;20.00;;;;;;5009562;28;20486;-65
2023/10/04 02:34:43;;;;;;;6.30;2.73;;;13.10;20.30;;;;;;5010309;28;20509;-65
2023/10/04 02:37:11;;;;;;;5.63;2.60;;;13.10;20.30;;;;;;5010104;28;20460;-65
2023/10/04 02:39:37;;;;;;;6.67;2.97;;;13.10;20.40;;;;;;5006348;28;20475;-65
2023/10/04 02:42:09;;;;;;;5.47;2.80;;;13.00;20.30;;;;;;5010731;28;20577;-65
2023/10/04 02:44:36;;;;;;;6.33;2.73;;;13.00;20.30;;;;;;5008580;28;20491;-65
2023/10/04 02:47:06;;;;;;;5.60;2.30;;;13.00;20.70;;;;;;5008782;28;20940;-65
2023/10/04 02:49:34;;;;;;;7.97;2.63;;;13.00;20.90;;;;;;5007133;28;20487;-65
2023/10/04 02:52:01;;;;;;;7.73;2.63;;;13.00;21.30;;;;;;5004552;28;21196;-65
2023/10/04 02:54:31;;;;;;;6.83;2.87;;;12.90;21.40;;;;;;5010494;28;21015;-65
2023/10/04 02:56:58;;;;;;;6.17;3.10;;;12.90;21.70;;;;;;5009306;28;20491;-65
2023/10/04 02:59:25;;;;;;;7.23;2.80;;;12.90;21.70;;;;;;5005630;28;20534;-65
2023/10/04 03:01:52;;;;;;;9.23;3.47;;;12.90;21.70;;;;;;5007661;28;20472;-65
2023/10/04 03:04:21;;;;;;;6.90;2.53;;;12.90;21.60;;;;;;5009653;28;20491;-65
2023/10/04 03:06:48;;;;;;;7.50;2.93;;;12.90;21.80;;;;;;5008165;28;20463;-65
2023/10/04 03:09:15;;;;;;;8.80;3.03;;;12.80;21.80;;;;;;5009077;28;20503;-65
2023/10/04 03:11:42;;;;;;;5.77;3.03;;;12.80;22.10;;;;;;5010803;28;20559;-65
2023/10/04 03:14:11;;;;;;;8.40;3.17;;;12.80;22.10;;;;;;5002076;28;20489;-65
2023/10/04 03:16:40;;;;;;;6.30;2.60;;;12.80;22.20;;;;;;5004012;28;20495;-65
2023/10/04 03:19:07;;;;;;;9.13;2.77;;;12.80;22.10;;;;;;5006819;28;20487;-65
2023/10/04 03:21:36;;;;;;;8.47;2.83;;;12.70;22.00;;;;;;5008056;28;20466;-65
2023/10/04 03:24:10;;;;;;;5.83;2.60;;;12.80;22.50;;;;;;5009030;28;22499;-64
2023/10/04 03:26:37;;;;;;;7.27;3.10;;;12.80;22.60;;;;;;5007356;28;20503;-65
2023/10/04 03:29:04;;;;;;;7.53;3.17;;;12.80;23.10;;;;;;5007623;28;20459;-65
2023/10/04 03:31:33;;;;;;;5.77;3.13;;;12.70;23.40;;;;;;5017072;23;20507;-64
2023/10/04 03:34:00;;;;;;;7.03;3.40;;;12.70;23.30;;;;;;5005555;28;20505;-64
2023/10/04 03:36:29;;;;;;;6.00;2.40;;;12.70;23.50;;;;;;5000819;28;20468;-63
2023/10/04 03:38:57;;;;;;;8.63;3.17;;;12.70;23.70;;;;;;4999848;28;20484;-68
2023/10/04 03:41:24;;;;;;;7.93;3.43;;;12.60;23.60;;;;;;5003646;28;20472;-69
2023/10/04 03:43:51;;;;;;;5.97;2.37;;;12.70;24.30;;;;;;5003623;28;20491;-63
2023/10/04 03:46:18;;;;;;;8.40;3.60;;;12.70;24.60;;;;;;5008278;28;20859;-61
2023/10/04 03:48:45;;;;;;;7.87;3.70;;;12.70;24.60;;;;;;5006215;28;20467;-61
2023/10/04 03:51:13;;;;;;;8.47;3.47;;;12.60;24.60;;;;;;5004406;28;20488;-63
2023/10/04 03:53:42;;;;;;;7.60;3.03;;;12.60;24.90;;;;;;5004409;28;20549;-63
2023/10/04 03:56:10;;;;;;;6.23;2.40;;;12.60;24.60;;;;;;5002048;28;21263;-63
2023/10/04 03:58:37;;;;;;;5.47;2.50;;;12.60;24.40;;;;;;5006257;28;20530;-63
2023/10/04 04:01:05;;;;;;;5.73;2.53;;;12.60;24.20;;;;;;5004194;28;20480;-63
2023/10/04 04:03:31;;;;;;;6.83;3.20;;;12.60;23.70;;;;;;5006007;28;20481;-63
2023/10/04 04:05:58;;;;;;;8.83;4.27;;;12.60;23.80;;;;;;5003266;28;20463;-63
2023/10/04 04:08:25;;;;;;;8.03;2.80;;;12.60;23.90;;;;;;5007301;28;20483;-63
2023/10/04 04:10:52;;;;;;;6.80;3.03;;;12.50;24.00;;;;;;5006193;28;20459;-64
2023/10/04 04:13:20;;;;;;;7.70;4.00;;;12.50;24.30;;;;;;5002116;28;20480;-63
2023/10/04 04:15:48;;;;;;;5.03;2.57;;;12.40;24.20;;;;;;5005809;28;20464;-63
2023/10/04 04:18:19;;;;;;;8.17;3.10;;;12.40;24.20;;;;;;5007619;28;20460;-63
2023/10/04 04:20:47;;;;;;;8.00;3.10;;;12.40;24.20;;;;;;5005627;28;20570;-63
2023/10/04 04:23:15;;;;;;;8.53;3.43;;;12.30;24.30;;;;;;5003028;28;20475;-63
2023/10/04 04:25:42;;;;;;;7.10;3.50;;;12.30;24.50;;;;;;5005790;28;20515;-63
2023/10/04 04:28:12;;;;;;;6.67;3.20;;;12.30;24.70;;;;;;5007309;28;21196;-64
2023/10/04 04:30:40;;;;;;;7.40;3.10;;;12.30;24.90;;;;;;5005578;28;21334;-63
2023/10/04 04:33:07;;;;;;;8.30;3.13;;;12.20;24.90;;;;;;5004109;28;20468;-63
2023/10/04 04:35:47;;;;;;;7.97;3.30;;;12.20;24.90;;;;;;5007486;28;20565;-63
2023/10/04 04:38:17;;;;;;;9.37;3.30;;;12.30;24.50;;;;;;5003542;28;20467;-63
2023/10/04 04:40:47;;;;;;;10.00;3.40;;;12.30;24.40;;;;;;5004459;28;20503;-63
2023/10/04 04:43:26;;;;;;;7.37;3.10;;;12.20;24.00;;;;;;5004242;28;20950;-63
2023/10/04 04:45:56;;;;;;;9.80;3.73;;;12.20;24.00;;;;;;5005487;28;20479;-63
2023/10/04 04:48:24;;;;;;;10.30;4.03;;;12.20;23.80;;;;;;5005868;28;20459;-63
2023/10/04 04:50:52;;;;;;;10.33;3.00;;;12.10;23.70;;;;;;5006988;28;20456;-63
2023/10/04 04:53:21;;;;;;;7.37;3.37;;;12.10;23.30;;;;;;5004024;28;20983;-63
2023/10/04 04:55:48;;;;;;;7.60;4.10;;;12.10;23.60;;;;;;5007545;28;20455;-64
2023/10/04 04:58:18;;;;;;;10.00;3.50;;;12.00;23.70;;;;;;5006887;28;20465;-63
2023/10/04 05:00:47;;;;;;;6.90;2.90;;;12.00;23.70;;;;;;5004238;28;20480;-64
2023/10/04 05:03:15;;;;;;;6.80;3.17;;;12.00;23.90;;;;;;5007410;28;20555;-63
2023/10/04 05:05:41;;;;;;;8.37;3.20;;;12.00;24.00;;;;;;5008630;28;21197;-64
2023/10/04 05:08:08;;;;;;;6.60;2.60;;;12.00;24.00;;;;;;5008101;28;20467;-63
2023/10/04 05:10:38;;;;;;;9.97;3.90;;;12.00;24.40;;;;;;5005683;28;20456;-63
2023/10/04 05:13:07;;;;;;;6.20;3.10;;;11.90;24.70;;;;;;5007077;28;20455;-63
2023/10/04 05:15:37;;;;;;;10.07;3.40;;;12.00;24.90;;;;;;5004824;28;20483;-64
2023/10/04 05:18:10;;;;;;;10.43;3.63;;;11.90;25.10;;;;;;5004078;28;20466;-63
2023/10/04 05:20:41;;;;;;;10.80;4.40;;;11.90;25.20;;;;;;5006186;28;20974;-64
2023/10/04 05:23:09;;;;;;;8.97;3.70;;;11.90;25.80;;;;;;5002508;28;20475;-63
2023/10/04 05:25:35;;;;;;;7.40;3.53;;;12.00;24.80;;;;;;5004710;28;20487;-64
2023/10/04 05:28:04;;;;;;;7.63;3.63;;;12.00;25.00;;;;;;5001863;28;20460;-63
2023/10/04 05:30:31;;;;;;;8.40;3.57;;;12.00;25.10;;;;;;5006310;28;20484;-64
2023/10/04 05:32:57;;;;;;;6.30;3.57;;;12.00;25.50;;;;;;5005705;28;20451;-64
2023/10/04 05:35:24;;;;;;;9.50;3.90;;;12.00;25.70;;;;;;5001906;28;20487;-64
2023/10/04 05:37:53;;;;;;;8.33;3.70;;;12.10;25.90;;;;;;5008270;28;20467;-64
2023/10/04 05:40:25;;;;;;;7.07;3.37;;;12.10;25.90;;;;;;5001350;28;20508;-64
2023/10/04 05:42:54;;;;;;;7.63;3.53;;;12.20;26.00;;;;;;5006062;28;21032;-64
2023/10/04 05:45:21;;;;;;;6.00;3.20;;;12.30;26.00;;;;;;4998408;28;21188;-64
2023/10/04 05:47:50;;;;;;;6.40;3.43;;;12.40;26.00;;;;;;5002688;28;20468;-64
2023/10/04 05:50:18;;;;;;;7.60;3.90;;;12.50;26.40;;;;;;4998199;28;20475;-63
2023/10/04 05:52:45;;;;;;;8.17;3.33;;;12.60;26.20;;;;;;5008435;28;20460;-64
2023/10/04 05:55:14;;;;;;;6.73;3.20;;;12.70;25.70;;;;;;4995206;28;20489;-64
2023/10/04 05:57:43;;;;;;;7.83;3.47;;;12.90;25.00;;;;;;5006387;28;20467;-64
2023/10/04 06:00:22;;;;;;;7.20;2.77;;;13.10;23.80;;;;;;4993594;28;20563;-64
2023/10/04 06:02:50;;;;;;;6.63;3.43;;;13.60;22.20;;;;;;5003405;28;20575;-64
2023/10/04 06:05:19;;;;;;;8.33;3.30;;;14.20;20.40;;;;;;5002445;28;20479;-63
2023/10/04 06:07:46;;;;;;;9.23;3.87;;;14.80;18.90;;;;;;4998847;28;20467;-64
2023/10/04 06:10:15;;;;;;;6.70;3.40;;;15.50;17.20;;;;;;5001407;28;20452;-64
2023/10/04 06:12:42;;;;;;;6.40;3.17;;;16.10;15.60;;;;;;5002703;28;20467;-64
2023/10/04 06:15:11;;;;;;;7.20;2.70;;;16.60;14.10;;;;;;5004346;28;20487;-64
2023/10/04 06:17:42;;;;;;;5.93;2.70;;;16.90;13.10;;;;;;5002424;28;20456;-64
2023/10/04 06:20:23;;;;;;;6.07;3.00;;;17.10;12.30;;;;;;4999031;28;20479;-64
2023/10/04 06:22:50;;;;;;;6.83;2.80;;;17.30;11.90;;;;;;5002543;28;20467;-64
2023/10/04 06:25:19;;;;;;;8.87;3.60;;;17.40;11.40;;;;;;5000120;28;20514;-64
2023/10/04 06:27:46;;;;;;;7.10;2.93;;;17.40;11.20;;;;;;5002314;28;20467;-64
2023/10/04 06:30:13;;;;;;;8.10;3.53;;;17.40;11.10;;;;;;5004247;28;20460;-64
2023/10/04 06:32:40;;;;;;;6.03;2.90;;;17.50;11.20;;;;;;5018692;28;20471;-64
2023/10/04 06:35:08;;;;;;;5.20;2.60;;;17.60;11.00;;;;;;5020675;28;20499;-64
2023/10/04 06:37:36;;;;;;;5.97;3.00;;;17.80;10.70;;;;;;5006550;28;20490;-64
2023/10/04 06:40:04;;;;;;;7.33;2.83;;;17.90;11.10;;;;;;5005337;28;20488;-64
2023/10/04 06:42:32;;;;;;;6.23;2.87;;;18.20;10.30;;;;;;5008964;28;20980;-64
2023/10/04 06:44:59;;;;;;;8.53;3.67;;;18.40;9.60;;;;;;5005675;28;20476;-64
2023/10/04 06:47:27;;;;;;;6.90;2.20;;;18.70;9.00;;;;;;5009065;28;20459;-64
2023/10/04 06:49:54;;;;;;;6.83;2.93;;;19.10;8.30;;;;;;5008314;28;20526;-64
2023/10/04 06:52:20;;;;;;;6.90;2.40;;;19.50;7.20;;;;;;5007476;28;20455;-64
2023/10/04 06:54:47;;;;;;;6.00;2.57;;;20.20;5.60;;;;;;5006542;28;20537;-63
2023/10/04 06:57:14;;;;;;;7.70;3.43;;;20.80;3.80;;;;;;5008339;28;20470;-64
2023/10/04 06:59:43;;;;;;;6.23;2.87;;;21.00;2.90;;;;;;5009332;28;20479;-64
2023/10/04 07:02:09;;;;;;;7.27;3.00;;;21.00;2.90;;;;;;5007774;28;20526;-63
2023/10/04 07:04:36;;;;;;;8.83;2.83;;;20.90;2.80;;;;;;5007471;28;20862;-63
2023/10/04 07:07:03;;;;;;;6.00;2.87;;;20.90;2.90;;;;;;5004321;28;20460;-62
2023/10/04 07:09:30;;;;;;;6.90;2.60;;;20.80;2.80;;;;;;5004104;28;20456;-63
2023/10/04 07:11:57;;;;;;;7.50;3.17;;;21.00;2.40;;;;;;5005005;28;20456;-63
2023/10/04 07:14:24;;;;;;;5.27;2.33;;;21.70;1.60;;;;;;5003100;28;20510;-64
2023/10/04 07:16:54;;;;;;;5.40;2.33;;;22.70;1.00;;;;;;5004949;28;20889;-63
2023/10/04 07:19:22;;;;;;;6.80;3.10;;;23.90;1.00;;;;;;5007979;28;20452;-64
2023/10/04 07:21:49;;;;;;;9.60;3.63;;;25.00;1.00;;;;;;5009557;28;20460;-64
2023/10/04 07:24:16;;;;;;;6.40;3.33;;;26.00;1.00;;;;;;5001206;28;21113;-64
2023/10/04 07:26:45;;;;;;;5.80;2.30;;;27.00;1.00;;;;;;5001640;28;20463;-64
2023/10/04 07:29:12;;;;;;;9.27;2.40;;;28.10;1.00;;;;;;5004739;28;20955;-64
2023/10/04 07:31:39;;;;;;;6.03;2.40;;;29.50;1.00;;;;;;5005228;28;20485;-65
2023/10/04 07:34:08;;;;;;;4.87;2.50;;;30.70;1.00;;;;;;5008896;28;20508;-64
2023/10/04 07:36:36;;;;;;;7.37;3.10;;;31.60;1.00;;;;;;5009570;28;20466;-64
2023/10/04 07:39:02;;;;;;;6.60;3.00;;;32.60;1.00;;;;;;5004566;28;20456;-64
2023/10/04 07:41:29;;;;;;;8.60;2.63;;;33.60;1.00;;;;;;5000319;28;20612;-65
2023/10/04 07:43:56;;;;;;;5.63;2.70;;;34.50;1.00;;;;;;5003685;28;20492;-65
2023/10/04 07:46:25;;;;;;;6.57;2.70;;;35.50;1.00;;;;;;5007111;28;20475;-64
2023/10/04 07:48:52;;;;;;;10.60;3.00;;;36.30;1.00;;;;;;5007085;28;20464;-64
2023/10/04 07:51:20;;;;;;;6.70;3.10;;;37.20;1.00;;;;;;5006232;28;20460;-65
2023/10/04 07:53:47;;;;;;;11.70;4.57;;;37.90;1.00;;;;;;5004818;28;20481;-64
2023/10/04 07:56:13;;;;;;;9.90;3.87;;;38.50;1.00;;;;;;5004221;28;21122;-65
2023/10/04 07:58:40;;;;;;;6.83;2.80;;;39.20;1.00;;;;;;5003511;28;20460;-64
2023/10/04 08:01:07;;;;;;;7.80;2.90;;;39.80;1.00;;;;;;5005867;28;20976;-64
2023/10/04 08:03:34;;;;;;;6.53;3.17;;;40.50;1.00;;;;;;4998302;28;20583;-65
2023/10/04 08:06:01;;;;;;;5.70;2.70;;;41.00;1.00;;;;;;5006219;28;20997;-64
2023/10/04 08:08:29;;;;;;;6.10;2.67;;;41.50;1.00;;;;;;5007038;28;20979;-65
2023/10/04 08:10:55;;;;;;;5.90;3.17;;;42.00;1.00;;;;;;5008038;28;20514;-65
2023/10/04 08:13:22;;;;;;;6.10;2.70;;;42.50;1.00;;;;;;5004632;28;20455;-65
2023/10/04 08:15:49;;;;;;;5.70;3.00;;;42.90;1.00;;;;;;5009262;28;20467;-65
2023/10/04 08:18:16;;;;;;;6.57;2.43;;;43.20;1.00;;;;;;5002884;28;20467;-64
2023/10/04 08:20:43;;;;;;;8.10;2.70;;;43.70;1.00;;;;;;5005602;28;20472;-65
2023/10/04 08:23:10;;;;;;;4.73;2.27;;;44.00;1.00;;;;;;5006257;28;20542;-64
2023/10/04 08:25:39;;;;;;;5.07;2.43;;;44.30;1.00;;;;;;5003064;28;20476;-65
2023/10/04 08:28:08;;;;;;;5.00;2.40;;;44.50;1.00;;;;;;5008440;28;20491;-65
2023/10/04 08:30:38;;;;;;;4.73;1.97;;;44.00;1.00;;;;;;5003632;28;20839;-64
2023/10/04 08:33:05;;;;;;;6.23;2.50;;;44.30;1.00;;;;;;5005816;28;20463;-65
2023/10/04 08:35:36;;;;;;;4.70;2.50;;;44.80;1.00;;;;;;5005081;28;20542;-64
2023/10/04 08:38:04;;;;;;;4.50;1.77;;;45.30;1.00;;;;;;5004894;28;20463;-65
2023/10/04 08:40:35;;;;;;;4.23;2.00;;;45.60;1.00;;;;;;5003582;28;20503;-65
2023/10/04 08:43:04;;;;;;;5.33;2.17;;;45.70;1.00;;;;;;5007005;28;20470;-65
2023/10/04 08:45:33;;;;;;;5.57;2.47;;;46.00;1.00;;;;;;5005791;28;20467;-65
2023/10/04 08:48:00;;;;;;;5.10;2.03;;;46.20;1.00;;;;;;4999728;28;20518;-65
2023/10/04 08:50:32;;;;;;;5.87;2.63;;;46.30;1.00;;;;;;5005271;28;20452;-65
2023/10/04 08:53:04;;;;;;;4.73;1.77;;;46.50;1.00;;;;;;4994700;28;20464;-64
2023/10/04 08:55:37;;;;;;;3.17;1.33;;;46.60;1.00;;;;;;4998649;28;20483;-65
2023/10/04 08:58:05;;;;;;;4.20;1.67;;;46.60;1.00;;;;;;4996882;28;20463;-65
2023/10/04 09:00:35;;;;;;;5.07;1.60;;;47.00;1.00;;;;;;5004645;28;20471;-65
2023/10/04 09:03:05;;;;;;;3.90;1.63;;;47.40;1.00;;;;;;5006925;28;20827;-65
2023/10/04 09:05:33;;;;;;;4.00;1.67;;;47.60;1.00;;;;;;4999254;28;20483;-65
2023/10/04 09:08:01;;;;;;;4.93;1.50;;;47.90;1.00;;;;;;4998962;28;20459;-65
2023/10/04 09:10:32;;;;;;;6.83;2.27;;;48.10;1.00;;;;;;5000066;28;20507;-65
2023/10/04 09:12:59;;;;;;;4.23;1.70;;;47.70;1.00;;;;;;5009026;28;20470;-65
2023/10/04 09:15:28;;;;;;;3.83;1.57;;;47.70;1.00;;;;;;5005300;28;20483;-65
2023/10/04 09:17:57;;;;;;;4.67;2.03;;;47.90;1.00;;;;;;5003688;28;21007;-65
2023/10/04 09:20:29;;;;;;;3.53;1.20;;;48.10;1.00;;;;;;5000321;28;20859;-65
2023/10/04 09:22:55;;;;;;;4.80;1.70;;;48.10;1.00;;;;;;5001992;28;20553;-65
2023/10/04 09:25:23;;;;;;;4.57;1.80;;;48.10;1.00;;;;;;5003406;28;20475;-65
2023/10/04 09:27:55;;;;;;;3.37;1.33;;;48.10;1.00;;;;;;5000231;28;20460;-65
2023/10/04 09:30:23;;;;;;;4.23;2.17;;;48.30;1.00;;;;;;4998009;28;21077;-65
2023/10/04 09:32:52;;;;;;;4.13;1.90;;;48.10;1.00;;;;;;5004182;28;20456;-65
2023/10/04 09:35:19;;;;;;;4.10;1.60;;;46.70;1.00;;;;;;5005552;28;20541;-65
2023/10/04 09:37:46;;;;;;;4.27;1.70;;;44.90;1.00;;;;;;5006106;28;20464;-65
2023/10/04 09:40:16;;;;;;;4.60;2.13;;;43.70;1.00;;;;;;5007221;28;20974;-65
2023/10/04 09:42:46;;;;;;;7.00;2.60;;;43.70;1.00;;;;;;5004989;28;20463;-65
2023/10/04 09:45:14;;;;;;;5.30;2.37;;;44.70;1.00;;;;;;5007724;28;20832;-65
2023/10/04 09:47:41;;;;;;;4.20;2.03;;;45.60;1.00;;;;;;5009623;23;21291;-64
2023/10/04 09:50:13;;;;;;;7.70;2.40;;;46.00;1.00;;;;;;4988035;28;21062;-65
2023/10/04 09:52:39;;;;;;;4.70;2.03;;;46.30;1.00;;;;;;4984687;28;20465;-65
2023/10/04 09:55:08;;;;;;;7.53;2.20;;;46.20;1.00;;;;;;4982679;28;20487;-66
2023/10/04 09:57:37;;;;;;;3.87;1.63;;;45.80;1.00;;;;;;4982770;28;20966;-65
2023/10/04 10:00:07;;;;;;;5.40;1.70;;;45.30;1.00;;;;;;4981251;28;20468;-66
2023/10/04 10:02:37;;;;;;;8.40;1.80;;;45.20;1.00;;;;;;4984545;28;20481;-65
2023/10/04 10:05:08;;;;;;;4.47;1.87;;;45.20;1.00;;;;;;4983750;28;20539;-66
2023/10/04 10:07:37;;;;;;;5.10;1.97;;;44.90;1.00;;;;;;4984557;28;20461;-66
2023/10/04 10:10:10;;;;;;;4.23;2.10;;;44.30;1.00;;;;;;4986396;28;20461;-65
2023/10/04 10:12:37;;;;;;;4.77;2.00;;;43.80;1.00;;;;;;4987437;28;20514;-65
2023/10/04 10:15:04;;;;;;;3.63;1.97;;;43.10;1.00;;;;;;4986739;28;20865;-64
2023/10/04 10:17:33;;;;;;;8.27;2.33;;;41.70;1.00;;;;;;4986166;28;20492;-64
2023/10/04 10:20:01;;;;;;;4.90;2.10;;;40.80;1.00;;;;;;4991541;28;20460;-66
2023/10/04 10:22:28;;;;;;;5.17;2.07;;;40.20;1.00;;;;;;4989708;28;20484;-65
2023/10/04 10:25:14;;;;;;;7.43;2.60;;;39.50;1.00;;;;;;4989981;28;20843;-65
2023/10/04 10:27:43;;;;;;;5.23;2.30;;;38.70;1.00;;;;;;4989444;28;20453;-66
2023/10/04 10:30:12;;;;;;;5.47;2.20;;;38.10;1.00;;;;;;4987871;28;20465;-64
2023/10/04 10:32:50;;;;;;;5.20;2.40;;;37.30;1.00;;;;;;4985884;28;21161;-65
2023/10/04 10:35:52;;;;;;;5.40;2.30;;;36.60;1.00;;;;;;4989002;28;20481;-65
2023/10/04 10:38:44;;;;;;;5.50;2.03;;;35.80;1.00;;;;;;4983816;28;20952;-67
2023/10/04 10:41:55;;;;;;;6.37;1.60;;;35.20;1.00;;;;;;4990323;28;20594;-64
2023/10/04 10:44:23;;;;;;;6.60;2.40;;;34.70;1.00;;;;;;4987507;28;20511;-64
2023/10/04 10:46:54;;;;;;;5.43;1.83;;;34.40;1.00;;;;;;4991465;28;20460;-64
2023/10/04 10:49:50;;;;;;;4.73;1.90;;;34.00;1.00;;;;;;4984408;28;20990;-64
2023/10/04 10:52:25;;;;;;;4.93;2.27;;;33.60;1.00;;;;;;4989938;28;20535;-65
2023/10/04 10:54:53;;;;;;;4.70;1.90;;;33.30;1.00;;;;;;4989400;28;20526;-66
2023/10/04 10:57:22;;;;;;;7.33;1.90;;;33.00;1.00;;;;;;4990958;28;20492;-64
2023/10/04 10:59:53;;;;;;;6.20;2.20;;;32.80;1.00;;;;;;4987489;28;20842;-64
2023/10/04 11:02:19;;;;;;;8.43;2.43;;;32.70;1.00;;;;;;4972280;28;20477;-64
2023/10/04 11:04:46;;;;;;;4.60;1.70;;;32.80;1.00;;;;;;4970028;28;20952;-63
2023/10/04 11:07:13;;;;;;;6.00;2.00;;;32.70;1.00;;;;;;4971773;28;20472;-64
2023/10/04 11:09:40;;;;;;;6.23;2.23;;;32.40;1.00;;;;;;4969586;28;20935;-66
2023/10/04 11:12:08;;;;;;;6.27;2.27;;;32.20;1.00;;;;;;4971060;28;20954;-64
2023/10/04 11:14:37;;;;;;;5.60;2.23;;;32.10;1.00;;;;;;4967876;28;20568;-65
2023/10/04 11:17:05;;;;;;;6.60;1.73;;;31.90;1.00;;;;;;4969332;28;20468;-64
2023/10/04 11:19:34;;;;;;;7.07;2.10;;;32.00;1.00;;;;;;4971344;28;20461;-64
2023/10/04 11:22:02;;;;;;;6.57;1.80;;;32.20;1.00;;;;;;4966992;28;20496;-64
2023/10/04 11:24:30;;;;;;;5.20;1.93;;;32.30;1.00;;;;;;4971121;28;20481;-64
2023/10/04 11:26:57;;;;;;;6.67;2.00;;;32.70;1.00;;;;;;4970012;28;20966;-63
2023/10/04 11:29:26;;;;;;;7.17;1.87;;;32.60;1.00;;;;;;4964664;28;20465;-64
2023/10/04 11:31:56;;;;;;;4.93;1.67;;;32.10;1.00;;;;;;4974049;28;20465;-64
2023/10/04 11:34:23;;;;;;;6.63;2.00;;;31.80;1.00;;;;;;4972965;28;20488;-64
2023/10/04 11:36:50;;;;;;;4.63;1.80;;;31.80;1.00;;;;;;4971267;28;20458;-64
2023/10/04 11:39:19;;;;;;;5.47;1.53;;;31.90;1.00;;;;;;4967076;28;20460;-64
2023/10/04 11:41:51;;;;;;;6.60;2.00;;;32.00;1.00;;;;;;4976056;28;20482;-64
2023/10/04 11:44:18;;;;;;;4.77;1.70;;;32.10;1.00;;;;;;4971305;28;20493;-64
2023/10/04 11:46:59;;;;;;;4.63;1.57;;;32.20;1.00;;;;;;4973210;28;20461;-65
2023/10/04 11:49:28;;;;;;;6.43;1.80;;;32.30;1.00;;;;;;4971391;28;20470;-65
2023/10/04 11:51:58;;;;;;;5.27;1.37;;;32.20;1.00;;;;;;4971314;28;20540;-65
2023/10/04 11:54:26;;;;;;;5.33;1.83;;;32.20;1.00;;;;;;4971120;28;20571;-65
2023/10/04 11:56:53;;;;;;;6.40;1.53;;;32.20;1.00;;;;;;4971479;28;20464;-65
2023/10/04 11:59:31;;;;;;;5.23;1.80;;;32.20;1.00;;;;;;4968791;28;20457;-65
2023/10/04 12:02:00;;;;;;;7.77;1.60;;;32.20;1.00;;;;;;4982113;28;21276;-65
2023/10/04 12:04:27;;;;;;;5.67;1.87;;;32.10;1.00;;;;;;4988655;28;20488;-65
2023/10/04 12:07:02;;;;;;;4.23;1.87;;;32.20;1.00;;;;;;4989788;28;20492;-65
2023/10/04 12:09:31;;;;;;;5.07;1.87;;;32.00;1.00;;;;;;4985709;28;20828;-65
2023/10/04 12:11:58;;;;;;;5.57;1.40;;;31.50;1.00;;;;;;4988873;28;20983;-65
2023/10/04 12:14:26;;;;;;;4.63;1.77;;;31.00;1.00;;;;;;4984907;28;20487;-65
2023/10/04 12:16:53;;;;;;;4.20;1.40;;;30.50;1.00;;;;;;4981433;28;20465;-65
2023/10/04 12:19:21;;;;;;;5.40;1.53;;;29.90;1.00;;;;;;4987620;28;20468;-65
2023/10/04 12:21:48;;;;;;;3.90;1.30;;;29.20;1.00;;;;;;4977034;28;20500;-65
2023/10/04 12:24:15;;;;;;;4.90;1.67;;;28.60;1.00;;;;;;4984808;28;20496;-65
2023/10/04 12:26:42;;;;;;;6.83;2.10;;;28.00;1.00;;;;;;4982893;28;20553;-65
2023/10/04 12:29:11;;;;;;;6.83;1.90;;;27.50;1.00;;;;;;4982085;28;20460;-65
2023/10/04 12:31:37;;;;;;;4.03;1.27;;;27.00;1.00;;;;;;4984225;28;20999;-65
2023/10/04 12:34:05;;;;;;;5.77;1.50;;;26.60;1.00;;;;;;4985726;28;20488;-65
2023/10/04 12:36:36;;;;;;;6.47;2.10;;;26.20;1.00;;;;;;4980759;28;20460;-65
2023/10/04 12:39:06;;;;;;;4.70;2.00;;;25.90;1.00;;;;;;4985870;28;20551;-65
2023/10/04 12:41:33;;;;;;;4.90;1.93;;;25.60;1.00;;;;;;4988370;28;20484;-65
2023/10/04 12:43:59;;;;;;;4.40;1.33;;;25.20;1.00;;;;;;4986549;28;20488;-65
2023/10/04 12:46:26;;;;;;;4.50;1.40;;;24.80;1.00;;;;;;4986421;28;20461;-65
2023/10/04 12:48:53;;;;;;;4.90;1.77;;;24.60;1.00;;;;;;4981555;28;20925;-65
2023/10/04 12:51:20;;;;;;;4.70;1.60;;;24.40;1.00;;;;;;4986391;28;20461;-65
2023/10/04 12:53:49;;;;;;;4.77;1.40;;;24.40;1.00;;;;;;4985861;28;20485;-65
2023/10/04 12:56:16;;;;;;;6.30;2.03;;;24.30;1.00;;;;;;4985109;28;20977;-65
2023/10/04 12:58:45;;;;;;;5.47;1.53;;;24.20;1.00;;;;;;4986980;28;20552;-65